Time;durP1;ratioP1;P1;durP2;ratioP2;P2;SDS_P1;SDS_P2;PMS_P1;PMS_P2;Temp;Humidity;BMP_temperature;BMP_pressure;BME280_temperature;BME280_humidity;BME280_pressure;Samples;Min_cycle;Max_cycle;Signal;HPM_P1;HPM_P2
2022/12/01 00:02:23;;;;;;;14.88;7.63;;;;;;;6.75;76.36;101451.38;4988483;28;20073;-49
2022/12/01 00:04:49;;;;;;;15.88;7.68;;;;;;;6.75;77.41;101446.22;4985709;28;20078;-49
2022/12/01 00:07:16;;;;;;;14.82;8.00;;;;;;;6.73;77.52;101434.97;4990277;28;20891;-48
2022/12/01 00:12:30;;;;;;;23.13;10.45;;;;;;;6.73;78.26;101437.56;4989540;28;20050;-52
2022/12/01 00:14:59;;;;;;;19.02;9.75;;;;;;;6.76;76.65;101432.53;4975936;28;20085;-53
2022/12/01 00:17:28;;;;;;;18.42;7.90;;;;;;;6.77;76.69;101434.25;4968205;28;20403;-54
2022/12/01 00:19:55;;;;;;;21.77;10.45;;;;;;;6.78;76.60;101436.00;4964647;28;20133;-49
2022/12/01 00:22:22;;;;;;;21.08;9.77;;;;;;;6.79;76.66;101442.94;4967310;28;20129;-52
2022/12/01 00:24:48;;;;;;;20.83;10.43;;;;;;;6.81;77.46;101449.00;4978616;28;20133;-45
2022/12/01 00:27:15;;;;;;;19.77;10.57;;;;;;;6.82;76.53;101437.88;4980388;28;20047;-48
2022/12/01 00:29:41;;;;;;;23.08;11.15;;;;;;;6.84;77.77;101443.97;4986457;28;20062;-47
2022/12/01 00:32:08;;;;;;;24.50;11.63;;;;;;;6.85;77.79;101431.97;4982235;28;20082;-46
2022/12/01 00:34:36;;;;;;;23.00;11.65;;;;;;;6.85;77.01;101432.81;4981080;28;20078;-50
2022/12/01 00:37:04;;;;;;;21.63;10.90;;;;;;;6.84;76.12;101433.66;4985982;28;20138;-50
2022/12/01 00:39:30;;;;;;;24.63;10.75;;;;;;;6.84;77.16;101431.09;4985997;28;20050;-48
2022/12/01 00:41:57;;;;;;;23.33;10.98;;;;;;;6.84;77.01;101431.09;4983272;28;20152;-48
2022/12/01 00:44:24;;;;;;;23.85;11.40;;;;;;;6.84;77.39;101436.22;4986228;28;20093;-47
2022/12/01 00:46:50;;;;;;;25.02;11.57;;;;;;;6.84;76.61;101438.81;4984725;28;20125;-48
2022/12/01 00:49:17;;;;;;;22.05;11.02;;;;;;;6.85;76.31;101453.44;4984761;28;20129;-46
2022/12/01 00:51:43;;;;;;;22.10;10.88;;;;;;;6.85;77.38;101453.44;4983717;28;20097;-49
2022/12/01 00:54:10;;;;;;;23.08;10.82;;;;;;;6.86;77.06;101460.31;4989749;28;20066;-51
2022/12/01 00:56:36;;;;;;;21.27;9.85;;;;;;;6.84;76.09;101462.00;4988661;28;20125;-50
2022/12/01 00:59:03;;;;;;;21.60;9.43;;;;;;;6.84;76.58;101461.09;4980864;28;20150;-51
2022/12/01 01:01:30;;;;;;;20.33;9.50;;;;;;;6.84;76.62;101469.72;4985159;28;20149;-51
2022/12/01 01:03:57;;;;;;;19.98;9.65;;;;;;;6.84;76.66;101467.13;4984072;28;20077;-49
2022/12/01 01:06:24;;;;;;;22.13;10.32;;;;;;;6.84;77.46;101466.25;4982449;28;20077;-51
2022/12/01 01:08:50;;;;;;;18.60;9.63;;;;;;;6.82;77.58;101468.78;4979162;28;20141;-46
2022/12/01 01:11:17;;;;;;;21.92;11.52;;;;;;;6.82;77.14;101469.66;4978495;28;20177;-50
2022/12/01 01:13:43;;;;;;;24.02;10.82;;;;;;;6.81;77.50;101469.59;4979730;28;20138;-51
2022/12/01 01:16:14;;;;;;;19.48;8.15;;;;;;;6.81;77.29;101467.91;4983912;28;21774;-49
2022/12/01 01:18:41;;;;;;;22.25;10.98;;;;;;;6.80;77.82;101471.28;4980130;28;20580;-47
2022/12/01 01:21:11;;;;;;;28.20;12.43;;;;;;;6.81;77.19;101473.06;4983733;28;20133;-51
2022/12/01 01:23:38;;;;;;;27.77;12.27;;;;;;;6.81;77.03;101473.06;4960820;28;20607;-53
2022/12/01 01:26:11;;;;;;;26.60;12.98;;;;;;;6.80;77.03;101470.44;4981533;28;20133;-49
2022/12/01 01:28:40;;;;;;;23.67;11.57;;;;;;;6.79;76.99;101466.13;4985958;28;20081;-46
2022/12/01 01:31:10;;;;;;;16.45;8.45;;;;;;;6.73;76.34;101456.47;4982135;28;20057;-47
2022/12/01 01:33:37;;;;;;;17.50;8.35;;;;;;;6.70;75.99;101464.06;4984274;28;20046;-49
2022/12/01 01:36:04;;;;;;;18.80;8.50;;;;;;;6.67;76.22;101463.97;4978663;28;20141;-52
2022/12/01 01:38:31;;;;;;;19.30;7.90;;;;;;;6.66;76.23;101457.06;4978267;28;20435;-49
2022/12/01 01:40:58;;;;;;;19.27;9.27;;;;;;;6.63;77.25;101452.69;4980633;28;20149;-49
2022/12/01 01:46:22;;;;;;;16.48;7.60;;;;;;;6.49;76.48;101446.16;5016355;27;20425;-52
2022/12/01 01:51:41;;;;;;;17.48;10.15;;;;;;;6.39;77.29;101448.38;5042310;27;20402;-47
2022/12/01 01:54:14;;;;;;;18.15;9.80;;;;;;;6.32;77.02;101445.53;5013141;28;20136;-53
2022/12/01 01:56:42;;;;;;;19.17;9.45;;;;;;;6.24;76.54;101440.06;5034415;28;20073;-52
2022/12/01 01:59:14;;;;;;;19.13;8.65;;;;;;;6.17;77.31;101445.00;5013304;28;20068;-51
2022/12/01 02:01:40;;;;;;;19.48;9.75;;;;;;;6.13;76.59;101440.56;5012597;28;20077;-50
2022/12/01 02:04:07;;;;;;;18.98;7.93;;;;;;;6.06;76.79;101446.28;5013964;28;20062;-48
2022/12/01 02:06:34;;;;;;;19.88;10.30;;;;;;;6.00;76.48;101438.28;5012402;28;20085;-53
2022/12/01 02:09:00;;;;;;;20.98;9.85;;;;;;;5.99;77.35;101439.13;5005671;28;20129;-48
2022/12/01 02:14:51;;;;;;;23.63;8.48;;;;;;;5.84;77.06;101427.41;5022742;28;20415;-49
2022/12/01 02:26:08;;;;;;;20.95;8.80;;;;;;;5.80;77.01;101428.13;5069793;27;20391;-48
2022/12/01 02:29:06;;;;;;;22.20;8.90;;;;;;;5.71;76.98;101425.19;5007144;28;20141;-48
2022/12/01 02:31:41;;;;;;;20.67;8.10;;;;;;;5.70;77.31;101423.41;5014827;28;20564;-49
2022/12/01 02:36:57;;;;;;;20.27;8.32;;;;;;;5.59;76.85;101411.03;4997883;27;20410;-49
2022/12/01 02:39:36;;;;;;;18.77;7.78;;;;;;;5.51;77.45;101412.44;5012030;28;20140;-50
2022/12/01 02:42:47;;;;;;;21.40;7.80;;;;;;;5.48;77.46;101410.63;5011255;28;20054;-49
2022/12/01 02:45:01;;;;;;;20.38;7.88;;;;;;;5.42;76.66;101412.03;4994317;28;20046;-54
2022/12/01 02:47:28;;;;;;;20.05;8.55;;;;;;;5.38;77.75;101409.34;4999895;28;20072;-48
2022/12/01 02:49:57;;;;;;;19.90;8.52;;;;;;;5.33;77.31;101413.41;4996644;28;20133;-49
2022/12/01 02:52:25;;;;;;;20.13;8.65;;;;;;;5.28;77.88;101415.78;4995922;28;20092;-51
2022/12/01 02:54:53;;;;;;;23.60;11.18;;;;;;;5.26;76.88;101411.41;4996303;28;20476;-53
2022/12/01 02:57:20;;;;;;;17.58;8.10;;;;;;;5.22;76.94;101410.41;4993829;28;20128;-50
2022/12/01 02:59:50;;;;;;;20.00;8.45;;;;;;;5.20;77.49;101408.59;4990842;28;20704;-50
2022/12/01 03:05:08;;;;;;;23.48;11.38;;;;;;;5.12;77.76;101424.56;5027588;28;20949;-48
2022/12/01 03:23:55;;;;;;;23.08;9.20;;;;;;;4.78;76.62;101453.03;5031979;28;20402;-53
2022/12/01 03:26:24;;;;;;;19.67;8.40;;;;;;;4.73;77.33;101455.44;5018918;28;20105;-52
2022/12/01 03:28:56;;;;;;;21.85;8.48;;;;;;;4.67;77.41;101457.72;5018640;28;20120;-52
2022/12/01 03:31:30;;;;;;;21.88;8.48;;;;;;;4.64;77.46;101458.47;5019704;28;21324;-49
2022/12/01 03:34:03;;;;;;;21.33;8.70;;;;;;;4.60;77.43;101460.00;5022423;28;20042;-53
2022/12/01 03:36:37;;;;;;;22.58;8.50;;;;;;;4.56;77.01;101458.09;5016639;28;20586;-49
2022/12/01 03:39:12;;;;;;;21.77;8.82;;;;;;;4.53;77.93;101470.81;5021055;28;20132;-50
2022/12/01 03:41:45;;;;;;;24.13;9.20;;;;;;;4.49;77.97;101467.22;5017571;28;20179;-46
2022/12/01 03:44:21;;;;;;;23.08;9.88;;;;;;;4.46;77.68;101476.50;5016432;28;20077;-50
2022/12/01 03:46:55;;;;;;;21.98;8.63;;;;;;;4.43;78.25;101472.06;5015467;28;20137;-51
2022/12/01 03:49:24;;;;;;;24.40;10.07;;;;;;;4.41;78.10;101471.13;5017818;28;20148;-51
2022/12/01 03:57:19;;;;;;;29.30;11.60;;;;;;;4.33;78.12;101468.19;5030340;27;20413;-50
2022/12/01 03:59:46;;;;;;;30.95;13.95;;;;;;;4.31;77.64;101467.28;4999020;28;20548;-47
2022/12/01 04:02:15;;;;;;;28.20;12.23;;;;;;;4.27;77.34;101473.06;4999944;28;20100;-50
2022/12/01 04:04:41;;;;;;;30.02;12.65;;;;;;;4.27;77.70;101470.50;4999902;28;20133;-52
2022/12/01 04:07:12;;;;;;;29.40;12.90;;;;;;;4.24;78.07;101473.81;4996910;28;20077;-46
2022/12/01 04:09:40;;;;;;;;;;;;;;;4.11;77.75;101464.66;4998954;28;20058;-51
2022/12/01 04:14:59;;;;;;;26.52;10.73;;;;;;;4.13;78.15;101462.19;5006426;28;20760;-45
2022/12/01 04:17:27;;;;;;;26.20;10.68;;;;;;;4.13;77.91;101471.53;4999375;28;20476;-50
2022/12/01 04:19:54;;;;;;;25.40;10.35;;;;;;;4.14;78.11;101463.03;4998052;28;20137;-48
2022/12/01 04:22:21;;;;;;;30.65;12.95;;;;;;;4.16;77.79;101461.44;5001376;28;20461;-50
2022/12/01 04:24:48;;;;;;;30.73;11.65;;;;;;;4.20;77.68;101458.19;4995279;28;20742;-50
2022/12/01 04:27:15;;;;;;;27.98;11.15;;;;;;;4.22;77.26;101462.59;4998998;28;20144;-52
2022/12/01 04:29:41;;;;;;;30.45;11.02;;;;;;;4.27;77.99;101465.38;4995498;28;20530;-48
2022/12/01 04:32:08;;;;;;;30.05;11.77;;;;;;;4.32;78.17;101466.47;4999451;28;20057;-48
2022/12/01 04:34:35;;;;;;;33.88;12.25;;;;;;;4.36;78.44;101467.50;4998704;28;20060;-49
2022/12/01 04:37:02;;;;;;;36.40;13.20;;;;;;;4.41;77.61;101477.94;5001592;28;20104;-47
2022/12/01 04:39:29;;;;;;;32.08;10.13;;;;;;;4.42;78.21;101479.72;4997053;28;20085;-51
2022/12/01 04:41:55;;;;;;;31.63;11.20;;;;;;;4.45;78.16;101479.84;4993846;28;20046;-49
2022/12/01 04:44:22;;;;;;;35.13;11.50;;;;;;;4.47;78.62;101480.81;4992619;28;20134;-46
2022/12/01 04:46:50;;;;;;;32.97;11.80;;;;;;;4.51;78.54;101490.38;4995770;28;20125;-48
2022/12/01 04:49:18;;;;;;;33.40;10.55;;;;;;;4.54;78.43;101490.53;4999973;28;20046;-48
2022/12/01 04:51:44;;;;;;;30.50;9.15;;;;;;;4.55;78.18;101501.66;4999861;28;20149;-45
2022/12/01 04:54:11;;;;;;;36.75;11.98;;;;;;;4.57;78.68;101500.94;5001066;28;20691;-47
2022/12/01 04:56:38;;;;;;;34.03;11.27;;;;;;;4.60;78.59;101500.19;5003833;28;20052;-52
2022/12/01 04:59:04;;;;;;;35.40;10.95;;;;;;;4.60;77.96;101506.19;5001120;28;20073;-48
2022/12/01 05:01:31;;;;;;;41.65;11.05;;;;;;;4.63;78.46;101511.47;4994054;28;20162;-47
2022/12/01 05:03:58;;;;;;;32.53;11.40;;;;;;;4.65;78.11;101508.97;4997187;28;20527;-49
2022/12/01 05:06:26;;;;;;;37.92;11.55;;;;;;;4.67;78.49;101512.50;4998010;28;20081;-51
2022/12/01 05:08:55;;;;;;;33.35;10.43;;;;;;;4.70;78.60;101501.50;4985805;28;20140;-48
2022/12/01 05:11:22;;;;;;;34.28;10.57;;;;;;;4.72;78.52;101510.13;4984661;28;20073;-47
2022/12/01 05:13:49;;;;;;;37.80;12.80;;;;;;;4.75;78.25;101500.00;4985542;28;20070;-47
2022/12/01 05:16:19;;;;;;;37.10;11.80;;;;;;;4.78;79.06;101505.28;4986279;28;20085;-47
2022/12/01 05:18:48;;;;;;;36.53;10.82;;;;;;;4.82;79.17;101501.16;4984020;28;20054;-48
2022/12/01 05:21:15;;;;;;;33.25;11.07;;;;;;;4.85;78.83;101498.72;4985623;28;20077;-48
2022/12/01 05:23:44;;;;;;;36.50;11.45;;;;;;;4.87;78.57;101500.53;4972661;28;20133;-50
2022/12/01 05:26:11;;;;;;;42.10;11.75;;;;;;;4.91;78.28;101495.53;4984615;28;20096;-54
2022/12/01 05:28:39;;;;;;;38.40;11.00;;;;;;;4.93;79.24;101483.66;4979733;28;20074;-51
2022/12/01 05:31:06;;;;;;;30.20;11.60;;;;;;;4.94;78.44;101477.72;4981354;28;20713;-51
2022/12/01 05:33:32;;;;;;;34.08;10.75;;;;;;;4.93;78.29;101468.25;4981354;28;20081;-51
2022/12/01 05:35:59;;;;;;;32.40;10.38;;;;;;;4.94;78.81;101472.56;4981967;28;20052;-49
2022/12/01 05:38:26;;;;;;;32.65;10.20;;;;;;;4.96;79.02;101473.53;4979954;28;20046;-53
2022/12/01 05:40:54;;;;;;;36.55;11.15;;;;;;;4.98;79.18;101464.19;4984308;28;20053;-49
2022/12/01 05:43:22;;;;;;;32.80;10.90;;;;;;;5.00;79.20;101465.16;4980606;28;20145;-51
2022/12/01 05:45:55;;;;;;;33.55;11.27;;;;;;;5.02;78.78;101468.66;4978849;28;20051;-46
2022/12/01 05:48:23;;;;;;;41.35;10.45;;;;;;;5.05;78.50;101467.91;4980043;28;20061;-51
2022/12/01 05:50:49;;;;;;;46.38;10.18;;;;;;;5.05;79.19;101463.66;4996265;28;20054;-48
2022/12/01 05:53:17;;;;;;;38.65;8.82;;;;;;;5.05;79.11;101463.66;4981485;28;20631;-46
2022/12/01 05:55:44;;;;;;;33.45;8.80;;;;;;;5.03;78.48;101472.97;4980508;28;20628;-51
2022/12/01 05:58:12;;;;;;;39.72;8.20;;;;;;;5.03;78.69;101459.25;4983832;28;20537;-52
2022/12/01 06:00:38;;;;;;;31.80;8.57;;;;;;;5.03;78.78;101465.25;4979452;28;20054;-50
2022/12/01 06:03:11;;;;;;;39.85;7.78;;;;;;;5.06;79.37;101460.25;4983351;28;20101;-52
2022/12/01 06:05:38;;;;;;;31.30;10.63;;;;;;;5.05;79.36;101453.38;4983263;28;20485;-53
2022/12/01 06:08:05;;;;;;;124.38;12.23;;;;;;;5.07;78.37;101467.13;4981020;28;21068;-47
2022/12/01 06:10:32;;;;;;;71.22;9.60;;;;;;;5.06;79.40;101464.53;4983410;28;20042;-48
2022/12/01 06:12:58;;;;;;;101.07;10.90;;;;;;;5.07;79.54;101472.28;4979007;28;20061;-47
2022/12/01 06:15:26;;;;;;;108.75;10.65;;;;;;;5.06;78.88;101472.25;4982241;28;20153;-50
2022/12/01 06:17:52;;;;;;;130.57;12.10;;;;;;;5.03;79.30;101474.66;4982858;28;20565;-50
2022/12/01 06:20:19;;;;;;;132.10;12.70;;;;;;;5.01;79.47;101478.03;4980341;28;20586;-46
2022/12/01 06:22:47;;;;;;;143.25;11.70;;;;;;;4.99;79.54;101465.94;4980628;28;20130;-49
2022/12/01 06:25:13;;;;;;;137.75;12.10;;;;;;;4.97;78.60;101470.16;4985271;28;20076;-47
2022/12/01 06:27:40;;;;;;;154.57;12.20;;;;;;;4.96;79.49;101461.56;4980972;28;20192;-47
2022/12/01 06:30:07;;;;;;;69.95;10.63;;;;;;;4.97;79.77;101462.44;4984712;28;20536;-48
2022/12/01 06:32:34;;;;;;;74.53;10.18;;;;;;;4.97;78.69;101471.00;4977808;28;20049;-51
2022/12/01 06:35:01;;;;;;;154.07;12.55;;;;;;;4.96;79.75;101466.69;4982151;28;20050;-48
2022/12/01 06:37:28;;;;;;;86.03;9.23;;;;;;;4.96;79.59;101473.53;4979979;28;20125;-49
2022/12/01 06:39:54;;;;;;;164.68;11.10;;;;;;;4.97;78.77;101470.16;4981799;28;20149;-48
2022/12/01 06:42:21;;;;;;;183.25;11.82;;;;;;;4.98;79.10;101479.59;4985735;28;20150;-50
2022/12/01 06:44:48;;;;;;;45.90;9.50;;;;;;;4.99;78.82;101483.91;4978140;28;20125;-46
2022/12/01 06:47:14;;;;;;;82.78;9.27;;;;;;;5.01;78.82;101478.03;4980614;28;20142;-52
2022/12/01 06:49:41;;;;;;;74.35;9.65;;;;;;;5.03;79.57;101483.22;4981107;28;20050;-48
2022/12/01 06:52:08;;;;;;;99.50;9.90;;;;;;;5.05;79.50;101486.75;4982114;28;20141;-50
2022/12/01 06:54:36;;;;;;;157.82;12.45;;;;;;;5.04;79.48;101484.13;4978081;28;20150;-49
2022/12/01 06:57:03;;;;;;;108.13;10.57;;;;;;;5.05;79.48;101493.56;4981764;28;20046;-53
2022/12/01 06:59:30;;;;;;;44.35;10.15;;;;;;;5.02;79.47;101499.47;4980945;28;20504;-48
2022/12/01 07:01:57;;;;;;;64.28;10.38;;;;;;;5.02;79.08;101499.47;4982182;28;20056;-50
2022/12/01 07:04:24;;;;;;;114.43;10.98;;;;;;;5.02;79.25;101494.31;4981639;28;20049;-51
2022/12/01 07:06:51;;;;;;;158.23;10.20;;;;;;;5.02;78.85;101507.16;4980338;28;20042;-48
2022/12/01 07:09:17;;;;;;;147.50;11.02;;;;;;;4.99;79.68;101505.34;4979285;28;20081;-52
2022/12/01 07:11:44;;;;;;;126.00;11.73;;;;;;;4.99;78.83;101505.34;4984265;28;21736;-50
2022/12/01 07:14:19;;;;;;;113.80;11.68;;;;;;;4.99;79.57;101517.28;4981098;28;20557;-48
2022/12/01 07:16:45;;;;;;;97.15;9.75;;;;;;;5.00;79.42;101514.81;4982335;28;20137;-48
2022/12/01 07:19:12;;;;;;;123.18;26.35;;;;;;;5.00;79.94;101516.50;4980801;28;20494;-46
2022/12/01 07:21:38;;;;;;;84.90;14.88;;;;;;;5.02;78.81;101525.16;4980509;28;20498;-51
2022/12/01 07:24:06;;;;;;;71.18;9.80;;;;;;;5.03;79.60;101521.75;4975681;28;20137;-53
2022/12/01 07:26:32;;;;;;;80.78;9.20;;;;;;;5.04;79.56;101526.09;4976677;28;20137;-51
2022/12/01 07:28:59;;;;;;;90.50;9.95;;;;;;;5.04;79.46;101528.69;4979547;28;20133;-52
2022/12/01 07:31:26;;;;;;;89.68;9.70;;;;;;;5.01;79.40;101528.53;4985715;28;20161;-53
2022/12/01 07:33:52;;;;;;;69.30;8.40;;;;;;;5.02;79.63;101535.41;4977443;28;20521;-49
2022/12/01 07:36:19;;;;;;;68.00;9.45;;;;;;;5.01;79.25;101534.53;4980875;28;20130;-53
2022/12/01 07:38:45;;;;;;;65.25;8.35;;;;;;;5.01;78.91;101528.53;4978517;28;20042;-51
2022/12/01 07:41:15;;;;;;;50.78;8.75;;;;;;;5.00;79.32;101543.06;4980567;28;20073;-48
2022/12/01 07:43:42;;;;;;;56.25;6.57;;;;;;;4.99;79.61;101541.31;4976174;28;20141;-52
2022/12/01 07:46:14;;;;;;;54.83;5.43;;;;;;;4.93;78.99;101547.84;4980801;28;20050;-49
2022/12/01 07:48:49;;;;;;;47.85;5.50;;;;;;;4.89;79.48;101555.41;4980064;28;20042;-48
2022/12/01 07:51:16;;;;;;;67.90;6.28;;;;;;;4.85;78.96;101566.38;4979637;28;20050;-52
2022/12/01 07:53:44;;;;;;;45.90;5.75;;;;;;;4.84;79.41;101556.03;4977963;28;20157;-46
2022/12/01 07:56:11;;;;;;;39.60;5.03;;;;;;;4.83;79.24;101555.13;4978028;28;20081;-51
2022/12/01 07:58:38;;;;;;;59.30;6.28;;;;;;;4.85;78.85;101553.53;4977160;28;20093;-53
2022/12/01 08:01:08;;;;;;;88.28;6.65;;;;;;;4.87;78.93;101557.03;4977714;28;20517;-50
2022/12/01 08:03:35;;;;;;;53.83;7.85;;;;;;;4.89;79.86;101560.56;4984329;28;20050;-53
2022/12/01 08:06:03;;;;;;;33.22;7.13;;;;;;;4.91;78.99;101562.31;4979350;28;20490;-50
2022/12/01 08:08:32;;;;;;;63.22;7.38;;;;;;;4.91;79.35;101563.19;4970830;28;20927;-49
2022/12/01 08:11:01;;;;;;;74.85;7.97;;;;;;;4.93;79.40;101566.69;4975502;28;20542;-47
2022/12/01 08:13:28;;;;;;;49.03;6.05;;;;;;;4.92;78.92;101564.06;4979558;28;20136;-53
2022/12/01 08:15:54;;;;;;;46.60;5.88;;;;;;;4.91;79.04;101573.47;4979159;28;20084;-51
2022/12/01 08:18:22;;;;;;;68.80;8.38;;;;;;;4.90;79.74;101576.84;4980254;28;20054;-50
2022/12/01 08:20:49;;;;;;;67.95;7.38;;;;;;;4.93;79.75;101586.38;4974084;28;20137;-50
2022/12/01 08:23:16;;;;;;;53.90;10.77;;;;;;;4.94;79.76;101578.75;4979410;28;20074;-48
2022/12/01 08:25:42;;;;;;;48.55;8.43;;;;;;;4.98;79.70;101569.47;4978422;28;20458;-52
2022/12/01 08:28:09;;;;;;;49.75;8.32;;;;;;;5.01;80.03;101574.75;4977665;28;20145;-49
2022/12/01 08:30:36;;;;;;;63.42;8.88;;;;;;;5.04;79.01;101577.47;4979114;28;20133;-53
2022/12/01 08:33:02;;;;;;;79.57;6.97;;;;;;;5.07;79.41;101580.16;4983130;28;20086;-52
2022/12/01 08:35:29;;;;;;;77.72;7.65;;;;;;;5.08;79.00;101581.94;4979610;28;20592;-49
2022/12/01 08:37:55;;;;;;;72.78;8.38;;;;;;;5.09;79.38;101588.81;4978519;28;20137;-52
2022/12/01 08:40:22;;;;;;;51.75;8.30;;;;;;;5.12;79.42;101586.38;4979470;28;20085;-49
2022/12/01 08:42:51;;;;;;;62.78;9.50;;;;;;;5.16;79.86;101583.97;4982414;28;20046;-48
2022/12/01 08:45:18;;;;;;;53.75;10.38;;;;;;;5.19;78.86;101591.78;4985218;28;20058;-49
2022/12/01 08:47:45;;;;;;;74.78;11.48;;;;;;;5.24;80.04;101587.75;4978487;28;20050;-48
2022/12/01 08:50:11;;;;;;;81.78;11.88;;;;;;;5.27;79.02;101590.47;4984812;28;20074;-49
2022/12/01 08:52:38;;;;;;;55.65;10.52;;;;;;;5.29;79.36;101601.66;4988323;28;20120;-53
2022/12/01 08:55:06;;;;;;;41.28;7.60;;;;;;;5.33;79.67;101598.41;4964340;28;20070;-50
2022/12/01 08:57:32;;;;;;;36.88;8.35;;;;;;;5.38;79.28;101614.03;4983134;28;20093;-53
2022/12/01 08:59:59;;;;;;;45.63;8.68;;;;;;;5.39;78.85;101611.53;4987711;28;20101;-50
2022/12/01 09:02:26;;;;;;;97.50;8.85;;;;;;;5.42;79.05;101617.63;4981081;28;20077;-51
2022/12/01 09:04:52;;;;;;;66.57;8.85;;;;;;;5.43;80.17;101616.81;4980403;28;20483;-54
2022/12/01 09:07:19;;;;;;;71.18;8.15;;;;;;;5.44;79.95;101618.56;4984509;28;20734;-51
2022/12/01 09:10:38;;;;;;;38.03;6.95;;;;;;;5.44;80.24;101621.16;4949713;28;20077;-45
2022/12/01 09:13:05;;;;;;;47.22;8.32;;;;;;;5.49;80.19;101624.78;4979438;28;20453;-52
2022/12/01 09:15:31;;;;;;;46.08;10.35;;;;;;;5.53;78.81;101624.09;4984878;28;20177;-50
2022/12/01 09:17:58;;;;;;;49.78;10.55;;;;;;;5.58;79.15;101620.06;4981754;28;20471;-50
2022/12/01 09:20:25;;;;;;;54.00;10.88;;;;;;;5.61;79.52;101620.16;4987377;28;20077;-50
2022/12/01 09:22:51;;;;;;;62.00;11.95;;;;;;;5.64;78.87;101620.31;4981542;28;20046;-46
2022/12/01 09:25:18;;;;;;;67.50;12.18;;;;;;;5.64;79.27;101622.88;4984928;28;20084;-47
2022/12/01 09:27:44;;;;;;;46.92;13.93;;;;;;;5.66;80.37;101616.13;4980860;28;20128;-51
2022/12/01 09:30:11;;;;;;;41.30;10.40;;;;;;;5.70;78.82;101608.50;4978329;28;20591;-54
2022/12/01 09:32:38;;;;;;;51.47;9.80;;;;;;;5.73;79.93;101606.97;4983611;28;20134;-49
2022/12/01 09:35:04;;;;;;;43.80;8.45;;;;;;;5.77;78.79;101603.72;4983760;28;20058;-52
2022/12/01 09:37:31;;;;;;;49.40;8.45;;;;;;;5.78;80.27;101602.03;4988174;28;20074;-48
2022/12/01 09:39:58;;;;;;;41.45;8.07;;;;;;;5.77;79.27;101603.72;4984019;28;20074;-47
2022/12/01 09:42:26;;;;;;;30.77;6.68;;;;;;;5.79;79.96;101603.78;4981457;28;20066;-53
2022/12/01 09:45:03;;;;;;;49.05;10.40;;;;;;;5.81;79.78;101597.00;4983258;28;20133;-52
2022/12/01 09:47:34;;;;;;;35.33;10.40;;;;;;;5.85;80.17;101593.75;4982842;28;20133;-49
2022/12/01 09:50:04;;;;;;;;;;;;;;;5.79;79.58;101588.34;4985007;28;20081;-53
2022/12/01 09:52:42;;;;;;;44.45;8.48;;;;;;;5.86;79.19;101586.91;4982668;28;19953;-50
2022/12/01 09:55:12;;;;;;;32.83;7.15;;;;;;;5.89;80.36;101580.22;4982780;28;20120;-50
2022/12/01 09:57:40;;;;;;;34.05;7.90;;;;;;;5.90;79.16;101587.09;4984817;28;20101;-52
2022/12/01 10:00:13;;;;;;;39.33;10.57;;;;;;;5.92;80.34;101582.88;4980797;28;20446;-47
2022/12/01 10:02:47;;;;;;;36.10;8.60;;;;;;;5.94;79.74;101579.53;4980527;28;20081;-45
2022/12/01 10:05:18;;;;;;;33.75;7.30;;;;;;;5.94;79.62;101576.97;4982141;28;20134;-48
2022/12/01 10:10:29;;;;;;;45.35;8.00;;;;;;;5.91;79.78;101581.13;5026539;28;20406;-55
2022/12/01 10:12:56;;;;;;;32.45;6.38;;;;;;;5.93;79.67;101576.06;5000391;28;20652;-50
2022/12/01 10:15:38;;;;;;;26.48;7.20;;;;;;;5.91;78.78;101573.44;4996331;28;20092;-53
2022/12/01 10:26:17;;;;;;;32.97;8.88;;;;;;;6.01;79.27;101578.97;5096133;27;20732;-50
2022/12/01 10:36:55;;;;;;;53.75;8.57;;;;;;;6.37;79.03;101576.13;5070368;27;20402;-46
2022/12/01 10:39:35;;;;;;;43.28;7.82;;;;;;;6.27;78.85;101576.56;5017555;28;20064;-52
2022/12/01 10:42:12;;;;;;;35.65;7.20;;;;;;;6.24;79.39;101577.34;5018629;28;20057;-50
2022/12/01 10:44:40;;;;;;;45.47;7.78;;;;;;;6.26;79.88;101574.81;5019964;28;20069;-55
2022/12/01 10:47:18;;;;;;;37.10;8.55;;;;;;;6.26;79.50;101569.69;5021973;28;20080;-53
2022/12/01 10:49:45;;;;;;;36.83;6.15;;;;;;;6.29;79.38;101564.66;5018823;28;20049;-51
2022/12/01 10:52:34;;;;;;;35.28;6.47;;;;;;;6.29;79.22;101562.09;5027048;28;20049;-55
2022/12/01 10:55:02;;;;;;;35.10;6.40;;;;;;;6.34;80.60;101559.66;5044872;28;20048;-47
2022/12/01 10:57:30;;;;;;;52.60;12.68;;;;;;;6.37;79.40;101558.13;5021192;28;20100;-52
2022/12/01 11:00:01;;;;;;;54.88;13.48;;;;;;;6.41;79.86;101554.84;5020771;28;20077;-56
2022/12/01 11:02:30;;;;;;;43.38;9.50;;;;;;;6.44;80.11;101548.94;5020344;28;20158;-50
2022/12/01 11:05:01;;;;;;;46.25;8.82;;;;;;;6.45;80.15;101545.53;5020866;28;20072;-52
2022/12/01 11:12:44;;;;;;;41.83;7.55;;;;;;;6.43;79.62;101542.88;5028243;28;20934;-50
2022/12/01 11:15:30;;;;;;;36.15;6.97;;;;;;;6.41;80.44;101539.41;4980850;28;20144;-53
2022/12/01 11:18:00;;;;;;;32.17;6.47;;;;;;;6.48;79.05;101542.22;4983238;28;20047;-49
2022/12/01 11:20:43;;;;;;;28.98;6.93;;;;;;;6.47;78.60;101543.00;4978785;28;20066;-55
2022/12/01 11:29:22;;;;;;;38.42;10.60;;;;;;;6.56;79.90;101548.53;5029534;27;21048;-49
2022/12/01 11:31:51;;;;;;;35.83;10.27;;;;;;;6.58;79.52;101544.31;5021795;28;20049;-56
2022/12/01 11:37:00;;;;;;;51.78;11.55;;;;;;;6.64;79.55;101547.13;5042101;27;20410;-53
2022/12/01 11:42:15;;;;;;;30.55;7.07;;;;;;;6.62;79.55;101542.75;5053434;27;20393;-52
2022/12/01 11:44:54;;;;;;;30.45;8.05;;;;;;;6.59;78.82;101538.34;5018044;28;20050;-52
2022/12/01 11:47:25;;;;;;;28.50;7.03;;;;;;;6.61;78.79;101536.69;5015498;28;20085;-51
2022/12/01 11:49:56;;;;;;;29.08;6.95;;;;;;;6.63;78.42;101529.94;5015271;28;20092;-51
2022/12/01 11:52:29;;;;;;;22.95;7.25;;;;;;;6.65;79.13;101525.69;5018615;28;20068;-52
2022/12/01 11:57:34;;;;;;;27.08;6.10;;;;;;;6.74;79.91;101511.41;5022505;28;20415;-48
2022/12/01 12:00:11;;;;;;;25.20;5.93;;;;;;;6.78;79.48;101501.28;4998935;28;20445;-55
2022/12/01 12:14:35;;;;;;;23.48;5.90;;;;;;;6.71;78.69;101491.56;5003857;27;20411;-52
2022/12/01 12:34:21;;;;;;;21.75;5.97;;;;;;;6.89;78.66;101491.34;5033115;27;20390;-48
2022/12/01 12:37:08;;;;;;;61.08;18.40;;;;;;;6.91;79.73;101500.03;4995843;28;20490;-51
2022/12/01 12:53:33;;;;;;;28.98;7.68;;;;;;;6.99;78.87;101486.56;4997144;28;20405;-53
2022/12/01 12:56:05;;;;;;;22.50;6.57;;;;;;;7.02;78.76;101478.91;4977439;28;20206;-56
2022/12/01 12:58:39;;;;;;;26.90;8.38;;;;;;;7.05;78.22;101481.59;4979083;28;20054;-52
2022/12/01 13:01:26;;;;;;;34.25;8.85;;;;;;;7.03;79.46;101483.25;4977411;28;20133;-56
2022/12/01 13:09:25;;;;;;;27.58;7.95;;;;;;;7.03;77.82;101480.69;5054833;28;20763;-46
2022/12/01 13:12:03;;;;;;;27.65;7.82;;;;;;;7.05;78.67;101481.59;5002333;28;20070;-51
2022/12/01 13:19:50;;;;;;;28.00;7.68;;;;;;;7.04;78.05;101479.84;5072308;27;20398;-49
2022/12/01 13:22:19;;;;;;;21.92;6.80;;;;;;;7.05;78.21;101486.75;5077301;28;20143;-51
2022/12/01 13:24:46;;;;;;;20.33;6.32;;;;;;;6.99;77.78;101476.25;5098364;28;20576;-47
2022/12/01 13:27:19;;;;;;;22.45;7.30;;;;;;;6.96;79.19;101477.03;5095266;28;20112;-47
2022/12/01 13:29:49;;;;;;;29.80;7.50;;;;;;;6.93;78.71;101475.19;5097644;28;20131;-53
2022/12/01 13:35:35;;;;;;;26.40;8.07;;;;;;;6.85;77.96;101468.88;5081861;27;20393;-52
2022/12/01 13:38:29;;;;;;;22.08;7.05;;;;;;;6.82;77.64;101473.91;5087603;28;20070;-48
2022/12/01 13:49:35;;;;;;;26.83;8.65;;;;;;;6.74;78.80;101467.63;5051525;27;20396;-52
2022/12/01 13:57:41;;;;;;;22.42;7.10;;;;;;;6.74;77.46;101467.63;5047503;28;20420;-52
2022/12/01 14:06:06;;;;;;;32.42;10.23;;;;;;;6.89;77.97;101473.31;5055405;27;20397;-54
2022/12/01 14:08:36;;;;;;;37.63;10.57;;;;;;;6.89;78.40;101475.91;5020923;28;20053;-49
2022/12/01 14:11:23;;;;;;;34.20;9.80;;;;;;;6.86;77.25;101475.78;5022012;28;20119;-48
2022/12/01 14:16:45;;;;;;;19.98;6.65;;;;;;;6.89;77.72;101475.91;5027624;28;20415;-53
2022/12/01 14:19:52;;;;;;;27.70;8.48;;;;;;;6.89;78.59;101475.91;5031699;28;20072;-55
2022/12/01 14:25:29;;;;;;;25.33;8.20;;;;;;;6.88;78.14;101484.47;5039265;28;20394;-55